CFG7EC LSZH-EDDF
Flight info
| Callsign | CFG7EC |
|---|---|
| Flight time | 0h 58m |
| Altitude | 20000 |
| Route | DEGES Z1 SUDEN T164 KOVAN T163 SPESA SPESA5B |
| Aircraft | A321/M-SDE3FGHIRWY/LB1 |
Departure
| Time | 2026-05-07 16:34 |
|---|---|
| Airport | Zürich Airport (LSZH) |
Arrival
| Time | 2026-05-07 17:33 |
|---|---|
| Airport | Frankfurt Main Airport (EDDF) |
| Time | Latitude | Longitude | Altitude | Speed | Heading |
|---|---|---|---|---|---|
| 2026-05-07 16:08 | 47.44458 | 8.56122 | 1398 ft | 0 kts | 245° |
| 2026-05-07 16:26 | 47.44454 | 8.56110 | 1407 ft | 4 kts | 245° |
| 2026-05-07 16:27 | 47.44475 | 8.56004 | 1399 ft | 15 kts | 330° |
| 2026-05-07 16:27 | 47.44585 | 8.55928 | 1404 ft | 17 kts | 335° |
| 2026-05-07 16:27 | 47.44696 | 8.55852 | 1397 ft | 18 kts | 335° |
| 2026-05-07 16:27 | 47.44802 | 8.55780 | 1401 ft | 16 kts | 335° |
| 2026-05-07 16:28 | 47.44897 | 8.55714 | 1399 ft | 14 kts | 335° |
| 2026-05-07 16:28 | 47.44977 | 8.55659 | 1403 ft | 11 kts | 335° |
| 2026-05-07 16:28 | 47.45036 | 8.55619 | 1405 ft | 8 kts | 335° |
| 2026-05-07 16:28 | 47.45103 | 8.55573 | 1407 ft | 15 kts | 335° |
| 2026-05-07 16:29 | 47.45182 | 8.55521 | 1405 ft | 22 kts | 341° |
| 2026-05-07 16:29 | 47.45328 | 8.55426 | 1407 ft | 23 kts | 332° |
| 2026-05-07 16:29 | 47.45471 | 8.55321 | 1401 ft | 22 kts | 335° |
| 2026-05-07 16:29 | 47.45587 | 8.55240 | 1403 ft | 14 kts | 335° |
| 2026-05-07 16:30 | 47.45671 | 8.55224 | 1402 ft | 12 kts | 31° |
| 2026-05-07 16:30 | 47.45675 | 8.55303 | 1406 ft | 6 kts | 97° |
| 2026-05-07 16:30 | 47.45671 | 8.55364 | 1400 ft | 9 kts | 94° |
| 2026-05-07 16:30 | 47.45664 | 8.55500 | 1402 ft | 18 kts | 95° |
| 2026-05-07 16:31 | 47.45649 | 8.55724 | 1408 ft | 26 kts | 98° |
| 2026-05-07 16:31 | 47.45629 | 8.56029 | 1410 ft | 34 kts | 95° |
| 2026-05-07 16:31 | 47.45604 | 8.56386 | 1414 ft | 32 kts | 97° |
| 2026-05-07 16:31 | 47.45580 | 8.56677 | 1422 ft | 20 kts | 96° |
| 2026-05-07 16:32 | 47.45568 | 8.56863 | 1420 ft | 17 kts | 96° |
| 2026-05-07 16:32 | 47.45587 | 8.57008 | 1423 ft | 13 kts | 36° |
| 2026-05-07 16:32 | 47.45654 | 8.57014 | 1425 ft | 8 kts | 323° |
| 2026-05-07 16:32 | 47.45666 | 8.56965 | 1424 ft | 0 kts | 277° |
| 2026-05-07 16:33 | 47.45668 | 8.56947 | 1424 ft | 15 kts | 277° |
| 2026-05-07 16:33 | 47.45708 | 8.56371 | 1417 ft | 94 kts | 276° |
| 2026-05-07 16:34 | 47.45798 | 8.55088 | 1396 ft | 155 kts | 276° |
| 2026-05-07 16:34 | 47.45929 | 8.53290 | 1589 ft | 187 kts | 277° |
| 2026-05-07 16:34 | 47.46062 | 8.51433 | 2614 ft | 178 kts | 277° |
| 2026-05-07 16:34 | 47.46191 | 8.49627 | 3504 ft | 183 kts | 277° |
| 2026-05-07 16:35 | 47.46174 | 8.47665 | 3888 ft | 201 kts | 254° |
| 2026-05-07 16:35 | 47.45292 | 8.45980 | 4075 ft | 219 kts | 219° |
| 2026-05-07 16:35 | 47.44143 | 8.44481 | 4461 ft | 222 kts | 235° |
| 2026-05-07 16:35 | 47.43501 | 8.42433 | 5008 ft | 220 kts | 256° |
| 2026-05-07 16:36 | 47.43090 | 8.40250 | 5566 ft | 221 kts | 256° |
| 2026-05-07 16:36 | 47.42584 | 8.38100 | 6101 ft | 224 kts | 238° |
| 2026-05-07 16:36 | 47.41382 | 8.36657 | 6589 ft | 230 kts | 201° |
| 2026-05-07 16:36 | 47.39793 | 8.36586 | 7082 ft | 235 kts | 164° |
| 2026-05-07 16:37 | 47.38468 | 8.37987 | 7552 ft | 242 kts | 124° |
| 2026-05-07 16:37 | 47.38005 | 8.40346 | 8051 ft | 246 kts | 85° |
| 2026-05-07 16:37 | 47.38643 | 8.42683 | 8555 ft | 247 kts | 46° |
| 2026-05-07 16:37 | 47.39925 | 8.44381 | 9079 ft | 249 kts | 36° |
| 2026-05-07 16:38 | 47.41271 | 8.46002 | 9572 ft | 252 kts | 44° |
| 2026-05-07 16:38 | 47.42442 | 8.48025 | 9821 ft | 268 kts | 51° |
| 2026-05-07 16:38 | 47.43615 | 8.50266 | 10020 ft | 282 kts | 52° |
| 2026-05-07 16:38 | 47.44781 | 8.52633 | 10358 ft | 291 kts | 58° |
| 2026-05-07 16:39 | 47.45618 | 8.55464 | 10485 ft | 313 kts | 76° |
| 2026-05-07 16:39 | 47.45889 | 8.58755 | 10624 ft | 334 kts | 89° |
| 2026-05-07 16:39 | 47.45986 | 8.62289 | 10750 ft | 355 kts | 88° |
| 2026-05-07 16:39 | 47.46107 | 8.66031 | 10871 ft | 374 kts | 88° |
| 2026-05-07 16:40 | 47.46246 | 8.69959 | 10995 ft | 392 kts | 88° |
| 2026-05-07 16:40 | 47.46400 | 8.74037 | 11356 ft | 400 kts | 87° |
| 2026-05-07 16:40 | 47.46558 | 8.78167 | 11864 ft | 405 kts | 87° |
| 2026-05-07 16:40 | 47.46568 | 8.82340 | 12385 ft | 408 kts | 95° |
| 2026-05-07 16:41 | 47.46123 | 8.86480 | 12925 ft | 410 kts | 103° |
| 2026-05-07 16:41 | 47.45515 | 8.90611 | 13453 ft | 413 kts | 103° |
| 2026-05-07 16:41 | 47.44908 | 8.94768 | 13965 ft | 416 kts | 103° |
| 2026-05-07 16:41 | 47.44303 | 8.98951 | 14424 ft | 418 kts | 103° |
| 2026-05-07 16:42 | 47.43698 | 9.03167 | 14891 ft | 421 kts | 103° |
| 2026-05-07 16:42 | 47.43092 | 9.07413 | 15344 ft | 424 kts | 103° |
| 2026-05-07 16:42 | 47.42481 | 9.11688 | 15808 ft | 426 kts | 103° |
| 2026-05-07 16:42 | 47.42093 | 9.16041 | 16234 ft | 430 kts | 92° |
| 2026-05-07 16:43 | 47.42308 | 9.20455 | 16663 ft | 434 kts | 79° |
| 2026-05-07 16:43 | 47.43148 | 9.24737 | 17076 ft | 436 kts | 67° |
| 2026-05-07 16:43 | 47.44542 | 9.28730 | 17538 ft | 438 kts | 60° |
| 2026-05-07 16:43 | 47.46069 | 9.32631 | 18006 ft | 440 kts | 57° |
| 2026-05-07 16:44 | 47.47931 | 9.36227 | 18420 ft | 441 kts | 46° |
| 2026-05-07 16:44 | 47.50187 | 9.39306 | 18807 ft | 442 kts | 36° |
| 2026-05-07 16:44 | 47.52766 | 9.41786 | 19198 ft | 443 kts | 26° |
| 2026-05-07 16:44 | 47.55597 | 9.43590 | 19589 ft | 443 kts | 17° |
| 2026-05-07 16:45 | 47.58578 | 9.44745 | 19966 ft | 443 kts | 8° |
| 2026-05-07 16:45 | 47.61643 | 9.45257 | 20341 ft | 444 kts | 0° |
| 2026-05-07 16:45 | 47.64735 | 9.45431 | 20753 ft | 445 kts | 0° |
| 2026-05-07 16:45 | 47.67876 | 9.45608 | 21209 ft | 447 kts | 0° |
| 2026-05-07 16:46 | 47.70993 | 9.45786 | 21599 ft | 449 kts | 0° |
| 2026-05-07 16:46 | 47.74126 | 9.45961 | 21965 ft | 452 kts | 0° |
| 2026-05-07 16:46 | 47.77275 | 9.46131 | 22327 ft | 454 kts | 0° |
| 2026-05-07 16:46 | 47.80443 | 9.46298 | 22687 ft | 456 kts | 360° |
| 2026-05-07 16:47 | 47.83618 | 9.46394 | 23045 ft | 458 kts | 359° |
| 2026-05-07 16:47 | 47.86809 | 9.46402 | 23412 ft | 459 kts | 358° |
| 2026-05-07 16:47 | 47.90011 | 9.46359 | 23731 ft | 461 kts | 357° |
| 2026-05-07 16:47 | 47.93228 | 9.46300 | 24024 ft | 463 kts | 357° |
| 2026-05-07 16:48 | 47.96457 | 9.46251 | 24326 ft | 465 kts | 358° |
| 2026-05-07 16:48 | 47.99701 | 9.46221 | 24617 ft | 467 kts | 358° |
| 2026-05-07 16:48 | 48.02960 | 9.46202 | 24920 ft | 469 kts | 358° |
| 2026-05-07 16:48 | 48.06224 | 9.46198 | 25229 ft | 470 kts | 358° |
| 2026-05-07 16:49 | 48.09488 | 9.46195 | 25648 ft | 468 kts | 358° |
| 2026-05-07 16:49 | 48.12739 | 9.46193 | 26061 ft | 467 kts | 358° |
| 2026-05-07 16:49 | 48.15985 | 9.46188 | 26455 ft | 466 kts | 358° |
| 2026-05-07 16:49 | 48.19222 | 9.46184 | 26850 ft | 465 kts | 358° |
| 2026-05-07 16:50 | 48.22450 | 9.46187 | 27242 ft | 464 kts | 358° |
| 2026-05-07 16:50 | 48.25671 | 9.46194 | 27639 ft | 463 kts | 358° |
| 2026-05-07 16:50 | 48.28891 | 9.46202 | 28053 ft | 462 kts | 357° |
| 2026-05-07 16:50 | 48.32096 | 9.46209 | 28449 ft | 461 kts | 357° |
| 2026-05-07 16:51 | 48.35300 | 9.46213 | 28840 ft | 460 kts | 357° |
| 2026-05-07 16:51 | 48.38493 | 9.46213 | 29231 ft | 459 kts | 357° |
| 2026-05-07 16:51 | 48.41680 | 9.46212 | 29618 ft | 458 kts | 357° |
| 2026-05-07 16:51 | 48.44860 | 9.46137 | 29997 ft | 455 kts | 352° |
| 2026-05-07 16:52 | 48.47961 | 9.45361 | 30305 ft | 450 kts | 342° |
| 2026-05-07 16:52 | 48.50893 | 9.43784 | 30582 ft | 446 kts | 332° |
| 2026-05-07 16:52 | 48.53571 | 9.41460 | 30884 ft | 443 kts | 322° |
| 2026-05-07 16:52 | 48.55915 | 9.38483 | 31174 ft | 439 kts | 312° |
| 2026-05-07 16:53 | 48.57865 | 9.34965 | 31490 ft | 437 kts | 302° |
| 2026-05-07 16:53 | 48.59587 | 9.31188 | 31771 ft | 437 kts | 306° |
| 2026-05-07 16:53 | 48.61641 | 9.27787 | 32062 ft | 440 kts | 316° |
| 2026-05-07 16:53 | 48.64054 | 9.24930 | 32337 ft | 442 kts | 325° |
| 2026-05-07 16:54 | 48.66756 | 9.22687 | 32609 ft | 445 kts | 334° |
| 2026-05-07 16:54 | 48.69592 | 9.20822 | 32876 ft | 445 kts | 334° |
| 2026-05-07 16:54 | 48.72433 | 9.18947 | 33149 ft | 445 kts | 334° |
| 2026-05-07 16:54 | 48.75267 | 9.17068 | 33440 ft | 444 kts | 334° |
| 2026-05-07 16:55 | 48.78093 | 9.15190 | 33749 ft | 443 kts | 334° |
| 2026-05-07 16:55 | 48.80916 | 9.13313 | 34019 ft | 443 kts | 334° |
| 2026-05-07 16:55 | 48.83774 | 9.11412 | 34245 ft | 443 kts | 335° |
| 2026-05-07 16:55 | 48.86699 | 9.09915 | 34435 ft | 445 kts | 344° |
| 2026-05-07 16:56 | 48.89757 | 9.09120 | 34615 ft | 449 kts | 353° |
| 2026-05-07 16:56 | 48.92888 | 9.09080 | 34758 ft | 451 kts | 2° |
| 2026-05-07 16:56 | 48.98987 | 9.09949 | 34397 ft | 431 kts | 3° |
| 2026-05-07 16:57 | 49.01955 | 9.10384 | 34024 ft | 426 kts | 3° |
| 2026-05-07 16:57 | 49.04888 | 9.10810 | 33567 ft | 421 kts | 3° |
| 2026-05-07 16:57 | 49.07795 | 9.11230 | 33112 ft | 418 kts | 3° |
| 2026-05-07 16:57 | 49.10674 | 9.11640 | 32659 ft | 414 kts | 3° |
| 2026-05-07 16:58 | 49.13532 | 9.12047 | 32217 ft | 411 kts | 3° |
| 2026-05-07 16:58 | 49.16366 | 9.12455 | 31769 ft | 407 kts | 3° |
| 2026-05-07 16:58 | 49.19174 | 9.12860 | 31327 ft | 404 kts | 3° |
| 2026-05-07 16:58 | 49.21965 | 9.13259 | 30875 ft | 401 kts | 3° |
| 2026-05-07 16:59 | 49.24736 | 9.13652 | 30432 ft | 398 kts | 3° |
| 2026-05-07 16:59 | 49.27494 | 9.14037 | 29536 ft | 404 kts | 3° |
| 2026-05-07 16:59 | 49.30365 | 9.14435 | 27962 ft | 425 kts | 3° |
| 2026-05-07 16:59 | 49.33385 | 9.14858 | 26332 ft | 446 kts | 3° |
| 2026-05-07 17:00 | 49.36550 | 9.15307 | 24664 ft | 468 kts | 3° |
| 2026-05-07 17:00 | 49.39844 | 9.15778 | 23275 ft | 478 kts | 4° |
| 2026-05-07 17:00 | 49.43119 | 9.16253 | 22121 ft | 469 kts | 4° |
| 2026-05-07 17:00 | 49.46343 | 9.16723 | 20982 ft | 460 kts | 4° |
| 2026-05-07 17:01 | 49.49518 | 9.17186 | 20042 ft | 456 kts | 4° |
| 2026-05-07 17:01 | 49.52660 | 9.17643 | 19208 ft | 450 kts | 3° |
| 2026-05-07 17:01 | 49.55758 | 9.18090 | 18377 ft | 445 kts | 3° |
| 2026-05-07 17:01 | 49.58822 | 9.18528 | 17469 ft | 439 kts | 4° |
| 2026-05-07 17:02 | 49.60868 | 9.18870 | 16897 ft | 436 kts | 7° |
| 2026-05-07 17:02 | 49.63798 | 9.19966 | 16170 ft | 429 kts | 15° |
| 2026-05-07 17:02 | 49.66636 | 9.20831 | 15536 ft | 417 kts | 1° |
| 2026-05-07 17:02 | 49.69511 | 9.20373 | 14790 ft | 407 kts | 346° |
| 2026-05-07 17:03 | 49.72241 | 9.19289 | 14011 ft | 403 kts | 344° |
| 2026-05-07 17:03 | 49.74930 | 9.18170 | 13188 ft | 399 kts | 344° |
| 2026-05-07 17:03 | 49.77594 | 9.17056 | 12362 ft | 394 kts | 344° |
| 2026-05-07 17:03 | 49.80227 | 9.15957 | 11563 ft | 390 kts | 344° |
| 2026-05-07 17:04 | 49.82834 | 9.14872 | 10792 ft | 386 kts | 344° |
| 2026-05-07 17:04 | 49.85406 | 9.13797 | 10289 ft | 376 kts | 344° |
| 2026-05-07 17:04 | 49.87861 | 9.12767 | 10162 ft | 356 kts | 344° |
| 2026-05-07 17:04 | 49.90185 | 9.11794 | 10035 ft | 337 kts | 344° |
| 2026-05-07 17:05 | 49.92288 | 9.10915 | 9923 ft | 321 kts | 344° |
| 2026-05-07 17:05 | 49.94400 | 9.10042 | 9788 ft | 306 kts | 344° |
| 2026-05-07 17:05 | 49.96408 | 9.09219 | 9647 ft | 291 kts | 344° |
| 2026-05-07 17:05 | 49.98333 | 9.08437 | 9406 ft | 281 kts | 344° |
| 2026-05-07 17:06 | 50.00178 | 9.07687 | 9009 ft | 278 kts | 344° |
| 2026-05-07 17:06 | 50.02073 | 9.06917 | 8572 ft | 276 kts | 344° |
| 2026-05-07 17:06 | 50.03922 | 9.06166 | 8143 ft | 273 kts | 344° |
| 2026-05-07 17:06 | 50.05753 | 9.05424 | 7618 ft | 271 kts | 344° |
| 2026-05-07 17:07 | 50.07568 | 9.04689 | 7087 ft | 269 kts | 344° |
| 2026-05-07 17:07 | 50.09303 | 9.03704 | 6550 ft | 264 kts | 325° |
| 2026-05-07 17:07 | 50.10544 | 9.01714 | 6212 ft | 251 kts | 300° |
| 2026-05-07 17:07 | 50.11160 | 8.99265 | 5923 ft | 239 kts | 284° |
| 2026-05-07 17:08 | 50.11569 | 8.96768 | 5472 ft | 237 kts | 285° |
| 2026-05-07 17:08 | 50.11967 | 8.94294 | 5015 ft | 235 kts | 285° |
| 2026-05-07 17:08 | 50.12361 | 8.91830 | 4552 ft | 234 kts | 285° |
| 2026-05-07 17:08 | 50.12682 | 8.89356 | 4092 ft | 233 kts | 274° |
| 2026-05-07 17:09 | 50.12510 | 8.86879 | 3971 ft | 235 kts | 250° |
| 2026-05-07 17:09 | 50.11534 | 8.84823 | 3689 ft | 245 kts | 223° |
| 2026-05-07 17:09 | 50.10186 | 8.83150 | 3153 ft | 246 kts | 226° |
| 2026-05-07 17:09 | 50.09302 | 8.81010 | 3165 ft | 226 kts | 251° |
| 2026-05-07 17:10 | 50.08785 | 8.78815 | 3192 ft | 209 kts | 252° |
| 2026-05-07 17:10 | 50.08289 | 8.76723 | 2851 ft | 202 kts | 252° |
| 2026-05-07 17:10 | 50.07811 | 8.74707 | 2573 ft | 195 kts | 252° |
| 2026-05-07 17:10 | 50.07353 | 8.72769 | 2328 ft | 185 kts | 252° |
| 2026-05-07 17:11 | 50.06926 | 8.70967 | 2085 ft | 169 kts | 252° |
| 2026-05-07 17:11 | 50.06532 | 8.69308 | 1839 ft | 160 kts | 251° |
| 2026-05-07 17:11 | 50.06152 | 8.67702 | 1637 ft | 157 kts | 252° |
| 2026-05-07 17:11 | 50.05774 | 8.66111 | 1424 ft | 156 kts | 252° |
| 2026-05-07 17:12 | 50.05399 | 8.64544 | 1201 ft | 153 kts | 250° |
| 2026-05-07 17:12 | 50.05046 | 8.63000 | 1011 ft | 150 kts | 251° |
| 2026-05-07 17:12 | 50.04684 | 8.61489 | 830 ft | 148 kts | 248° |
| 2026-05-07 17:12 | 50.04329 | 8.59993 | 626 ft | 146 kts | 249° |
| 2026-05-07 17:13 | 50.03967 | 8.58498 | 413 ft | 148 kts | 249° |
| 2026-05-07 17:13 | 50.03630 | 8.57078 | 360 ft | 130 kts | 248° |
| 2026-05-07 17:13 | 50.03284 | 8.55654 | 716 ft | 151 kts | 248° |
| 2026-05-07 17:13 | 50.02869 | 8.54006 | 1293 ft | 174 kts | 249° |
| 2026-05-07 17:14 | 50.02399 | 8.52224 | 1965 ft | 178 kts | 248° |
| 2026-05-07 17:14 | 50.01885 | 8.50397 | 2204 ft | 194 kts | 248° |
| 2026-05-07 17:14 | 50.01287 | 8.48388 | 2371 ft | 211 kts | 243° |
| 2026-05-07 17:14 | 50.00496 | 8.46412 | 2717 ft | 214 kts | 239° |
| 2026-05-07 17:15 | 49.99716 | 8.44463 | 3211 ft | 212 kts | 238° |
| 2026-05-07 17:15 | 49.98881 | 8.42568 | 3659 ft | 212 kts | 237° |
| 2026-05-07 17:15 | 49.98034 | 8.40771 | 4064 ft | 191 kts | 233° |
| 2026-05-07 17:15 | 49.97157 | 8.39378 | 4264 ft | 179 kts | 209° |
| 2026-05-07 17:16 | 49.95954 | 8.39099 | 4794 ft | 179 kts | 167° |
| 2026-05-07 17:16 | 49.94920 | 8.40127 | 5267 ft | 181 kts | 124° |
| 2026-05-07 17:16 | 49.94556 | 8.41973 | 5597 ft | 188 kts | 86° |
| 2026-05-07 17:16 | 49.94757 | 8.44064 | 5750 ft | 204 kts | 76° |
| 2026-05-07 17:17 | 49.95101 | 8.46255 | 6046 ft | 212 kts | 74° |
| 2026-05-07 17:17 | 49.95470 | 8.48483 | 6437 ft | 214 kts | 74° |
| 2026-05-07 17:17 | 49.95846 | 8.50729 | 6825 ft | 215 kts | 73° |
| 2026-05-07 17:17 | 49.96227 | 8.53003 | 6996 ft | 223 kts | 73° |
| 2026-05-07 17:18 | 49.96634 | 8.55413 | 7012 ft | 235 kts | 73° |
| 2026-05-07 17:18 | 49.97049 | 8.57886 | 7004 ft | 238 kts | 73° |
| 2026-05-07 17:18 | 49.97467 | 8.60374 | 7005 ft | 238 kts | 74° |
| 2026-05-07 17:18 | 49.97885 | 8.62863 | 7006 ft | 238 kts | 73° |
| 2026-05-07 17:19 | 49.98303 | 8.65349 | 7015 ft | 238 kts | 74° |
| 2026-05-07 17:19 | 49.98722 | 8.67839 | 6985 ft | 239 kts | 74° |
| 2026-05-07 17:19 | 49.99143 | 8.70333 | 7005 ft | 238 kts | 74° |
| 2026-05-07 17:19 | 49.99565 | 8.72824 | 7005 ft | 238 kts | 74° |
| 2026-05-07 17:20 | 49.99985 | 8.75316 | 7012 ft | 238 kts | 74° |
| 2026-05-07 17:20 | 50.00403 | 8.77807 | 7010 ft | 238 kts | 73° |
| 2026-05-07 17:20 | 50.00827 | 8.80334 | 7009 ft | 238 kts | 74° |
| 2026-05-07 17:20 | 50.01246 | 8.82826 | 7016 ft | 238 kts | 74° |
| 2026-05-07 17:21 | 50.01664 | 8.85317 | 7014 ft | 238 kts | 74° |
| 2026-05-07 17:21 | 50.02082 | 8.87806 | 7015 ft | 238 kts | 74° |
| 2026-05-07 17:21 | 50.02500 | 8.90291 | 7011 ft | 238 kts | 74° |
| 2026-05-07 17:21 | 50.02920 | 8.92785 | 7000 ft | 237 kts | 74° |
| 2026-05-07 17:22 | 50.03335 | 8.95249 | 6706 ft | 235 kts | 74° |
| 2026-05-07 17:22 | 50.03748 | 8.97714 | 6342 ft | 235 kts | 74° |
| 2026-05-07 17:22 | 50.04157 | 9.00167 | 5985 ft | 234 kts | 74° |
| 2026-05-07 17:22 | 50.04561 | 9.02600 | 5636 ft | 232 kts | 74° |
| 2026-05-07 17:23 | 50.04963 | 9.05034 | 5282 ft | 231 kts | 74° |
| 2026-05-07 17:23 | 50.05358 | 9.07440 | 5029 ft | 228 kts | 74° |
| 2026-05-07 17:23 | 50.05753 | 9.09843 | 5003 ft | 229 kts | 74° |
| 2026-05-07 17:23 | 50.06146 | 9.12235 | 5006 ft | 224 kts | 74° |
| 2026-05-07 17:24 | 50.06674 | 9.14381 | 4994 ft | 203 kts | 49° |
| 2026-05-07 17:24 | 50.07831 | 9.15636 | 5032 ft | 217 kts | 13° |
| 2026-05-07 17:24 | 50.09364 | 9.15683 | 5021 ft | 226 kts | 348° |
| 2026-05-07 17:24 | 50.10905 | 9.15135 | 5015 ft | 228 kts | 344° |
| 2026-05-07 17:25 | 50.12438 | 9.14515 | 5010 ft | 228 kts | 344° |
| 2026-05-07 17:25 | 50.13960 | 9.13822 | 5003 ft | 227 kts | 335° |
| 2026-05-07 17:25 | 50.15147 | 9.12268 | 5008 ft | 226 kts | 302° |
| 2026-05-07 17:25 | 50.15586 | 9.09943 | 5010 ft | 228 kts | 271° |
| 2026-05-07 17:26 | 50.15262 | 9.07517 | 5011 ft | 231 kts | 253° |
| 2026-05-07 17:26 | 50.14754 | 9.05143 | 5012 ft | 231 kts | 253° |
| 2026-05-07 17:26 | 50.14236 | 9.02735 | 5010 ft | 231 kts | 253° |
| 2026-05-07 17:26 | 50.13733 | 9.00393 | 5009 ft | 231 kts | 253° |
| 2026-05-07 17:27 | 50.13216 | 8.97988 | 5011 ft | 231 kts | 253° |
| 2026-05-07 17:27 | 50.12706 | 8.95615 | 5011 ft | 231 kts | 253° |
| 2026-05-07 17:27 | 50.12177 | 8.93261 | 4975 ft | 226 kts | 252° |
| 2026-05-07 17:27 | 50.11651 | 8.91007 | 4739 ft | 218 kts | 252° |
| 2026-05-07 17:28 | 50.11134 | 8.88806 | 4450 ft | 214 kts | 252° |
| 2026-05-07 17:28 | 50.10626 | 8.86648 | 4184 ft | 209 kts | 252° |
| 2026-05-07 17:28 | 50.10138 | 8.84573 | 3895 ft | 199 kts | 252° |
| 2026-05-07 17:28 | 50.09675 | 8.82610 | 3627 ft | 188 kts | 252° |
| 2026-05-07 17:29 | 50.09234 | 8.80738 | 3382 ft | 181 kts | 252° |
| 2026-05-07 17:29 | 50.08803 | 8.78905 | 3137 ft | 179 kts | 252° |
| 2026-05-07 17:29 | 50.08374 | 8.77088 | 2899 ft | 178 kts | 252° |
| 2026-05-07 17:29 | 50.07948 | 8.75282 | 2665 ft | 176 kts | 251° |
| 2026-05-07 17:30 | 50.07543 | 8.73574 | 2425 ft | 162 kts | 251° |
| 2026-05-07 17:30 | 50.07167 | 8.71960 | 2191 ft | 156 kts | 254° |
| 2026-05-07 17:30 | 50.06959 | 8.70316 | 1874 ft | 153 kts | 264° |
| 2026-05-07 17:30 | 50.06802 | 8.68683 | 1706 ft | 153 kts | 259° |
| 2026-05-07 17:31 | 50.06510 | 8.67091 | 1538 ft | 154 kts | 250° |
| 2026-05-07 17:31 | 50.06131 | 8.65532 | 1393 ft | 155 kts | 252° |
| 2026-05-07 17:31 | 50.05766 | 8.63968 | 1126 ft | 152 kts | 250° |
| 2026-05-07 17:31 | 50.05399 | 8.62444 | 903 ft | 149 kts | 249° |
| 2026-05-07 17:32 | 50.05049 | 8.60934 | 735 ft | 148 kts | 247° |
| 2026-05-07 17:32 | 50.04686 | 8.59430 | 536 ft | 148 kts | 247° |
| 2026-05-07 17:32 | 50.04327 | 8.57917 | 368 ft | 141 kts | 248° |
| 2026-05-07 17:32 | 50.04120 | 8.57059 | 367 ft | 109 kts | 249° |
| 2026-05-07 17:33 | 50.03919 | 8.56214 | 357 ft | 59 kts | 250° |
| 2026-05-07 17:33 | 50.03891 | 8.55853 | 356 ft | 25 kts | 270° |
| 2026-05-07 17:33 | 50.03904 | 8.55686 | 350 ft | 4 kts | 281° |
| 2026-05-07 17:33 | 50.03904 | 8.55684 | 350 ft | 0 kts | 281° |
| 2026-05-07 17:35 | 50.03905 | 8.55679 | 350 ft | 1 kts | 281° |
| 2026-05-07 17:35 | 50.03907 | 8.55656 | 351 ft | 3 kts | 281° |
| 2026-05-07 17:36 | 50.03914 | 8.55601 | 350 ft | 10 kts | 280° |
| 2026-05-07 17:36 | 50.03927 | 8.55473 | 353 ft | 12 kts | 270° |
| 2026-05-07 17:36 | 50.03900 | 8.55331 | 353 ft | 18 kts | 249° |
| 2026-05-07 17:36 | 50.03861 | 8.55169 | 353 ft | 15 kts | 249° |
| 2026-05-07 17:37 | 50.03856 | 8.55044 | 356 ft | 11 kts | 302° |
| 2026-05-07 17:37 | 50.03915 | 8.55000 | 356 ft | 8 kts | 340° |
| 2026-05-07 17:37 | 50.03965 | 8.54971 | 359 ft | 9 kts | 338° |
| 2026-05-07 17:37 | 50.03983 | 8.54874 | 352 ft | 10 kts | 251° |
| 2026-05-07 17:38 | 50.03957 | 8.54767 | 356 ft | 11 kts | 241° |
| 2026-05-07 17:38 | 50.03920 | 8.54760 | 350 ft | 5 kts | 168° |
| 2026-05-07 17:38 | 50.03897 | 8.54771 | 358 ft | 1 kts | 161° |
| 2026-05-07 17:38 | 50.03877 | 8.54781 | 362 ft | 6 kts | 160° |
| 2026-05-07 17:39 | 50.03866 | 8.54788 | 358 ft | 0 kts | 160° |